SUR4606 SBGL-SBPA
Flight info
| Callsign | SUR4606 |
|---|---|
| Flight time | 1h 45m |
| Altitude | 34000 |
| Route | TIVR1A BITAK UN857 DOKRO DCT VUKMO UBRE1B |
| Aircraft | B737/M-SD3/L |
Departure
| Time | 2026-05-06 15:43 |
|---|---|
| Airport | Rio Galeão – Tom Jobim International Airport (SBGL) |
Arrival
| Time | 2026-05-06 17:29 |
|---|---|
| Airport | Porto Alegre-Salgado Filho International Airport (SBPA) |
| Time | Latitude | Longitude | Altitude | Speed | Heading |
|---|---|---|---|---|---|
| 2026-05-06 15:16 | -22.81715 | -43.24336 | 30 ft | 0 kts | 125° |
| 2026-05-06 15:28 | -22.81708 | -43.24347 | 30 ft | 2 kts | 125° |
| 2026-05-06 15:28 | -22.81699 | -43.24360 | 30 ft | 2 kts | 126° |
| 2026-05-06 15:28 | -22.81691 | -43.24373 | 30 ft | 2 kts | 125° |
| 2026-05-06 15:29 | -22.81681 | -43.24386 | 30 ft | 2 kts | 143° |
| 2026-05-06 15:29 | -22.81668 | -43.24393 | 30 ft | 2 kts | 164° |
| 2026-05-06 15:29 | -22.81653 | -43.24395 | 30 ft | 2 kts | 185° |
| 2026-05-06 15:29 | -22.81638 | -43.24391 | 30 ft | 2 kts | 206° |
| 2026-05-06 15:30 | -22.81632 | -43.24387 | 30 ft | 1 kts | 219° |
| 2026-05-06 15:30 | -22.81628 | -43.24383 | 30 ft | 0 kts | 217° |
| 2026-05-06 15:30 | -22.81628 | -43.24384 | 30 ft | 0 kts | 217° |
| 2026-05-06 15:32 | -22.81647 | -43.24398 | 30 ft | 5 kts | 216° |
| 2026-05-06 15:32 | -22.81675 | -43.24426 | 30 ft | 4 kts | 234° |
| 2026-05-06 15:32 | -22.81694 | -43.24453 | 30 ft | 4 kts | 234° |
| 2026-05-06 15:32 | -22.81712 | -43.24476 | 30 ft | 3 kts | 219° |
| 2026-05-06 15:33 | -22.81733 | -43.24493 | 30 ft | 3 kts | 217° |
| 2026-05-06 15:33 | -22.81753 | -43.24514 | 30 ft | 5 kts | 220° |
| 2026-05-06 15:33 | -22.81782 | -43.24536 | 30 ft | 4 kts | 211° |
| 2026-05-06 15:33 | -22.81808 | -43.24552 | 30 ft | 4 kts | 210° |
| 2026-05-06 15:34 | -22.81841 | -43.24573 | 30 ft | 6 kts | 211° |
| 2026-05-06 15:34 | -22.81882 | -43.24601 | 30 ft | 7 kts | 213° |
| 2026-05-06 15:34 | -22.81922 | -43.24632 | 30 ft | 6 kts | 224° |
| 2026-05-06 15:34 | -22.81940 | -43.24678 | 30 ft | 7 kts | 273° |
| 2026-05-06 15:35 | -22.81915 | -43.24730 | 30 ft | 8 kts | 305° |
| 2026-05-06 15:35 | -22.81880 | -43.24782 | 30 ft | 9 kts | 306° |
| 2026-05-06 15:35 | -22.81844 | -43.24838 | 30 ft | 8 kts | 304° |
| 2026-05-06 15:35 | -22.81812 | -43.24887 | 30 ft | 7 kts | 305° |
| 2026-05-06 15:36 | -22.81783 | -43.24932 | 30 ft | 7 kts | 306° |
| 2026-05-06 15:36 | -22.81742 | -43.24992 | 30 ft | 10 kts | 306° |
| 2026-05-06 15:36 | -22.81693 | -43.25066 | 30 ft | 13 kts | 306° |
| 2026-05-06 15:36 | -22.81635 | -43.25151 | 30 ft | 13 kts | 306° |
| 2026-05-06 15:37 | -22.81583 | -43.25229 | 30 ft | 12 kts | 306° |
| 2026-05-06 15:37 | -22.81535 | -43.25301 | 30 ft | 11 kts | 305° |
| 2026-05-06 15:37 | -22.81491 | -43.25367 | 30 ft | 10 kts | 305° |
| 2026-05-06 15:37 | -22.81451 | -43.25428 | 30 ft | 9 kts | 305° |
| 2026-05-06 15:38 | -22.81415 | -43.25483 | 30 ft | 9 kts | 305° |
| 2026-05-06 15:38 | -22.81369 | -43.25554 | 30 ft | 11 kts | 305° |
| 2026-05-06 15:38 | -22.81325 | -43.25621 | 30 ft | 10 kts | 305° |
| 2026-05-06 15:38 | -22.81284 | -43.25683 | 30 ft | 9 kts | 305° |
| 2026-05-06 15:39 | -22.81238 | -43.25753 | 30 ft | 13 kts | 305° |
| 2026-05-06 15:39 | -22.81177 | -43.25845 | 30 ft | 15 kts | 306° |
| 2026-05-06 15:39 | -22.81097 | -43.25925 | 30 ft | 16 kts | 358° |
| 2026-05-06 15:39 | -22.80994 | -43.25863 | 30 ft | 17 kts | 36° |
| 2026-05-06 15:40 | -22.80889 | -43.25780 | 30 ft | 18 kts | 36° |
| 2026-05-06 15:40 | -22.80788 | -43.25701 | 30 ft | 17 kts | 36° |
| 2026-05-06 15:40 | -22.80699 | -43.25634 | 30 ft | 14 kts | 35° |
| 2026-05-06 15:40 | -22.80618 | -43.25572 | 30 ft | 13 kts | 35° |
| 2026-05-06 15:41 | -22.80544 | -43.25510 | 30 ft | 12 kts | 40° |
| 2026-05-06 15:41 | -22.80479 | -43.25451 | 30 ft | 11 kts | 36° |
| 2026-05-06 15:41 | -22.80406 | -43.25445 | 30 ft | 10 kts | 331° |
| 2026-05-06 15:41 | -22.80343 | -43.25490 | 30 ft | 11 kts | 326° |
| 2026-05-06 15:42 | -22.80261 | -43.25515 | 30 ft | 14 kts | 16° |
| 2026-05-06 15:42 | -22.80177 | -43.25451 | 30 ft | 11 kts | 52° |
| 2026-05-06 15:42 | -22.80153 | -43.25396 | 30 ft | 3 kts | 73° |
| 2026-05-06 15:42 | -22.80095 | -43.25181 | 30 ft | 74 kts | 74° |
| 2026-05-06 15:43 | -22.79869 | -43.24303 | 32 ft | 162 kts | 74° |
| 2026-05-06 15:43 | -22.79546 | -43.23042 | 789 ft | 181 kts | 74° |
| 2026-05-06 15:43 | -22.79214 | -43.21702 | 1606 ft | 193 kts | 75° |
| 2026-05-06 15:43 | -22.78899 | -43.20273 | 2310 ft | 206 kts | 76° |
| 2026-05-06 15:44 | -22.78594 | -43.18718 | 3104 ft | 215 kts | 77° |
| 2026-05-06 15:44 | -22.78318 | -43.17099 | 3871 ft | 227 kts | 78° |
| 2026-05-06 15:44 | -22.78013 | -43.15360 | 4521 ft | 245 kts | 77° |
| 2026-05-06 15:44 | -22.77605 | -43.13579 | 5609 ft | 243 kts | 74° |
| 2026-05-06 15:45 | -22.77172 | -43.11843 | 6601 ft | 244 kts | 75° |
| 2026-05-06 15:45 | -22.76751 | -43.10050 | 7453 ft | 251 kts | 76° |
| 2026-05-06 15:45 | -22.76345 | -43.08209 | 8355 ft | 255 kts | 76° |
| 2026-05-06 15:45 | -22.75962 | -43.06327 | 9212 ft | 260 kts | 80° |
| 2026-05-06 15:46 | -22.75912 | -43.04395 | 10065 ft | 264 kts | 99° |
| 2026-05-06 15:46 | -22.76632 | -43.02567 | 10877 ft | 271 kts | 125° |
| 2026-05-06 15:46 | -22.77983 | -43.01122 | 11699 ft | 276 kts | 142° |
| 2026-05-06 15:46 | -22.79600 | -42.99971 | 12480 ft | 281 kts | 148° |
| 2026-05-06 15:47 | -22.81300 | -42.98906 | 13257 ft | 285 kts | 150° |
| 2026-05-06 15:47 | -22.83110 | -42.98031 | 14058 ft | 287 kts | 163° |
| 2026-05-06 15:47 | -22.85088 | -42.97755 | 14921 ft | 287 kts | 184° |
| 2026-05-06 15:47 | -22.87041 | -42.98256 | 15489 ft | 297 kts | 202° |
| 2026-05-06 15:48 | -22.88865 | -42.99405 | 15972 ft | 310 kts | 215° |
| 2026-05-06 15:48 | -22.90618 | -43.00867 | 16412 ft | 324 kts | 218° |
| 2026-05-06 15:48 | -22.92406 | -43.02447 | 16856 ft | 338 kts | 218° |
| 2026-05-06 15:48 | -22.94269 | -43.04092 | 17264 ft | 352 kts | 218° |
| 2026-05-06 15:49 | -22.96233 | -43.05808 | 17679 ft | 365 kts | 218° |
| 2026-05-06 15:49 | -22.98239 | -43.07547 | 18033 ft | 379 kts | 218° |
| 2026-05-06 15:49 | -23.00349 | -43.09367 | 18493 ft | 389 kts | 218° |
| 2026-05-06 15:49 | -23.02460 | -43.11200 | 19190 ft | 392 kts | 218° |
| 2026-05-06 15:50 | -23.04606 | -43.13071 | 19882 ft | 395 kts | 218° |
| 2026-05-06 15:50 | -23.06758 | -43.14954 | 20575 ft | 397 kts | 219° |
| 2026-05-06 15:50 | -23.08897 | -43.16828 | 21201 ft | 401 kts | 219° |
| 2026-05-06 15:50 | -23.11093 | -43.18751 | 21791 ft | 406 kts | 219° |
| 2026-05-06 15:51 | -23.13294 | -43.20680 | 22412 ft | 409 kts | 219° |
| 2026-05-06 15:51 | -23.15533 | -43.22642 | 23003 ft | 413 kts | 219° |
| 2026-05-06 15:51 | -23.17760 | -43.24594 | 23619 ft | 416 kts | 219° |
| 2026-05-06 15:51 | -23.20019 | -43.26574 | 24298 ft | 417 kts | 219° |
| 2026-05-06 15:52 | -23.22306 | -43.28581 | 24860 ft | 420 kts | 219° |
| 2026-05-06 15:52 | -23.24558 | -43.30558 | 25491 ft | 421 kts | 219° |
| 2026-05-06 15:52 | -23.26872 | -43.32590 | 26046 ft | 424 kts | 219° |
| 2026-05-06 15:52 | -23.29150 | -43.34591 | 26626 ft | 425 kts | 219° |
| 2026-05-06 15:53 | -23.31458 | -43.36620 | 27129 ft | 428 kts | 219° |
| 2026-05-06 15:53 | -23.33791 | -43.38683 | 27622 ft | 431 kts | 219° |
| 2026-05-06 15:53 | -23.36128 | -43.40723 | 28200 ft | 431 kts | 218° |
| 2026-05-06 15:53 | -23.38483 | -43.42748 | 28665 ft | 434 kts | 218° |
| 2026-05-06 15:54 | -23.40861 | -43.44776 | 29184 ft | 435 kts | 218° |
| 2026-05-06 15:54 | -23.43266 | -43.46826 | 29780 ft | 434 kts | 218° |
| 2026-05-06 15:54 | -23.45632 | -43.48844 | 30550 ft | 428 kts | 218° |
| 2026-05-06 15:54 | -23.47948 | -43.50823 | 31274 ft | 422 kts | 218° |
| 2026-05-06 15:55 | -23.50251 | -43.52794 | 31836 ft | 419 kts | 218° |
| 2026-05-06 15:55 | -23.52533 | -43.54751 | 32378 ft | 417 kts | 217° |
| 2026-05-06 15:55 | -23.54808 | -43.56704 | 32961 ft | 413 kts | 217° |
| 2026-05-06 15:55 | -23.57032 | -43.58615 | 33552 ft | 409 kts | 218° |
| 2026-05-06 15:56 | -23.59264 | -43.60533 | 34057 ft | 406 kts | 218° |
| 2026-05-06 15:56 | -23.61490 | -43.62448 | 34120 ft | 410 kts | 217° |
| 2026-05-06 15:56 | -23.65763 | -43.66513 | 34123 ft | 406 kts | 223° |
| 2026-05-06 15:57 | -23.69737 | -43.70877 | 34126 ft | 405 kts | 224° |
| 2026-05-06 15:57 | -23.73717 | -43.75310 | 34124 ft | 406 kts | 224° |
| 2026-05-06 15:58 | -23.77673 | -43.79676 | 34128 ft | 405 kts | 224° |
| 2026-05-06 15:58 | -23.81667 | -43.84056 | 34129 ft | 404 kts | 224° |
| 2026-05-06 15:59 | -23.85653 | -43.88417 | 34128 ft | 404 kts | 224° |
| 2026-05-06 15:59 | -23.89624 | -43.92759 | 34127 ft | 404 kts | 224° |
| 2026-05-06 16:00 | -23.93606 | -43.97115 | 34129 ft | 402 kts | 224° |
| 2026-05-06 16:00 | -23.97553 | -44.01436 | 34127 ft | 402 kts | 224° |
| 2026-05-06 16:01 | -24.01488 | -44.05748 | 34130 ft | 402 kts | 224° |
| 2026-05-06 16:01 | -24.05449 | -44.10094 | 34132 ft | 403 kts | 224° |
| 2026-05-06 16:02 | -24.09424 | -44.14457 | 34128 ft | 403 kts | 224° |
| 2026-05-06 16:02 | -24.13382 | -44.18807 | 34122 ft | 403 kts | 224° |
| 2026-05-06 16:03 | -24.17334 | -44.23154 | 34114 ft | 402 kts | 224° |
| 2026-05-06 16:03 | -24.21286 | -44.27507 | 34115 ft | 403 kts | 224° |
| 2026-05-06 16:04 | -24.25239 | -44.31863 | 34116 ft | 401 kts | 224° |
| 2026-05-06 16:04 | -24.29175 | -44.36205 | 34119 ft | 401 kts | 224° |
| 2026-05-06 16:05 | -24.33100 | -44.40539 | 34118 ft | 401 kts | 224° |
| 2026-05-06 16:05 | -24.37051 | -44.44906 | 34116 ft | 401 kts | 224° |
| 2026-05-06 16:06 | -24.40969 | -44.49238 | 34123 ft | 401 kts | 224° |
| 2026-05-06 16:06 | -24.44894 | -44.53582 | 34123 ft | 402 kts | 224° |
| 2026-05-06 16:07 | -24.48817 | -44.57932 | 34119 ft | 399 kts | 224° |
| 2026-05-06 16:07 | -24.52751 | -44.62296 | 34124 ft | 401 kts | 224° |
| 2026-05-06 16:08 | -24.56645 | -44.66620 | 34121 ft | 400 kts | 224° |
| 2026-05-06 16:08 | -24.60483 | -44.70884 | 34123 ft | 399 kts | 224° |
| 2026-05-06 16:09 | -24.64392 | -44.75230 | 34127 ft | 400 kts | 224° |
| 2026-05-06 16:09 | -24.68307 | -44.79588 | 34124 ft | 398 kts | 224° |
| 2026-05-06 16:10 | -24.72228 | -44.83960 | 34128 ft | 400 kts | 224° |
| 2026-05-06 16:10 | -24.76117 | -44.88298 | 34127 ft | 398 kts | 224° |
| 2026-05-06 16:11 | -24.80016 | -44.92652 | 34128 ft | 398 kts | 224° |
| 2026-05-06 16:11 | -24.83902 | -44.96995 | 34124 ft | 398 kts | 224° |
| 2026-05-06 16:12 | -24.87792 | -45.01346 | 34129 ft | 398 kts | 224° |
| 2026-05-06 16:12 | -24.91677 | -45.05695 | 34134 ft | 398 kts | 224° |
| 2026-05-06 16:13 | -24.95535 | -45.10017 | 34131 ft | 396 kts | 224° |
| 2026-05-06 16:13 | -24.99412 | -45.14371 | 34131 ft | 397 kts | 224° |
| 2026-05-06 16:14 | -25.03292 | -45.18729 | 34135 ft | 398 kts | 224° |
| 2026-05-06 16:14 | -25.07167 | -45.23084 | 34134 ft | 395 kts | 224° |
| 2026-05-06 16:15 | -25.11036 | -45.27439 | 34132 ft | 396 kts | 224° |
| 2026-05-06 16:15 | -25.14866 | -45.31750 | 34130 ft | 398 kts | 224° |
| 2026-05-06 16:16 | -25.18748 | -45.36125 | 34129 ft | 397 kts | 224° |
| 2026-05-06 16:16 | -25.22601 | -45.40475 | 34128 ft | 396 kts | 224° |
| 2026-05-06 16:17 | -25.26444 | -45.44815 | 34128 ft | 396 kts | 224° |
| 2026-05-06 16:17 | -25.30286 | -45.49159 | 34126 ft | 396 kts | 224° |
| 2026-05-06 16:18 | -25.34144 | -45.53525 | 34126 ft | 396 kts | 224° |
| 2026-05-06 16:18 | -25.37991 | -45.57882 | 34129 ft | 395 kts | 224° |
| 2026-05-06 16:19 | -25.41832 | -45.62236 | 34125 ft | 395 kts | 224° |
| 2026-05-06 16:19 | -25.45707 | -45.66632 | 34128 ft | 395 kts | 225° |
| 2026-05-06 16:20 | -25.49553 | -45.71000 | 34125 ft | 396 kts | 224° |
| 2026-05-06 16:20 | -25.53385 | -45.75356 | 34128 ft | 396 kts | 225° |
| 2026-05-06 16:21 | -25.57238 | -45.79744 | 34128 ft | 396 kts | 225° |
| 2026-05-06 16:21 | -25.61121 | -45.84166 | 34125 ft | 403 kts | 225° |
| 2026-05-06 16:22 | -25.65077 | -45.88676 | 34127 ft | 409 kts | 225° |
| 2026-05-06 16:22 | -25.69069 | -45.93233 | 34128 ft | 409 kts | 225° |
| 2026-05-06 16:23 | -25.73030 | -45.97758 | 34127 ft | 411 kts | 225° |
| 2026-05-06 16:23 | -25.77016 | -46.02319 | 34127 ft | 410 kts | 225° |
| 2026-05-06 16:24 | -25.80995 | -46.06876 | 34128 ft | 408 kts | 225° |
| 2026-05-06 16:24 | -25.84930 | -46.11389 | 34127 ft | 407 kts | 225° |
| 2026-05-06 16:25 | -25.88911 | -46.15959 | 34129 ft | 407 kts | 225° |
| 2026-05-06 16:25 | -25.92852 | -46.20484 | 34132 ft | 406 kts | 225° |
| 2026-05-06 16:26 | -25.96776 | -46.24997 | 34130 ft | 406 kts | 225° |
| 2026-05-06 16:26 | -26.00715 | -46.29531 | 34133 ft | 408 kts | 225° |
| 2026-05-06 16:27 | -26.04679 | -46.34097 | 34133 ft | 407 kts | 225° |
| 2026-05-06 16:27 | -26.08617 | -46.38640 | 34131 ft | 408 kts | 225° |
| 2026-05-06 16:28 | -26.12538 | -46.43168 | 34131 ft | 407 kts | 225° |
| 2026-05-06 16:28 | -26.16486 | -46.47732 | 34127 ft | 405 kts | 225° |
| 2026-05-06 16:29 | -26.20410 | -46.52273 | 34121 ft | 404 kts | 225° |
| 2026-05-06 16:29 | -26.24323 | -46.56804 | 34120 ft | 405 kts | 225° |
| 2026-05-06 16:30 | -26.26943 | -46.59839 | 34120 ft | 404 kts | 225° |
| 2026-05-06 16:30 | -26.32157 | -46.65888 | 34120 ft | 404 kts | 225° |
| 2026-05-06 16:31 | -26.36053 | -46.70413 | 34117 ft | 404 kts | 226° |
| 2026-05-06 16:31 | -26.39923 | -46.75011 | 34111 ft | 403 kts | 228° |
| 2026-05-06 16:32 | -26.43360 | -46.79937 | 34109 ft | 406 kts | 232° |
| 2026-05-06 16:32 | -26.46677 | -46.85004 | 34102 ft | 401 kts | 232° |
| 2026-05-06 16:33 | -26.49978 | -46.90023 | 34105 ft | 402 kts | 232° |
| 2026-05-06 16:34 | -26.55002 | -46.97583 | 34101 ft | 401 kts | 231° |
| 2026-05-06 16:34 | -26.58330 | -47.02567 | 34097 ft | 401 kts | 232° |
| 2026-05-06 16:35 | -26.61686 | -47.07595 | 34101 ft | 401 kts | 231° |
| 2026-05-06 16:35 | -26.65004 | -47.12569 | 34102 ft | 401 kts | 231° |
| 2026-05-06 16:36 | -26.68362 | -47.17608 | 34105 ft | 400 kts | 232° |
| 2026-05-06 16:36 | -26.71685 | -47.22600 | 34098 ft | 399 kts | 231° |
| 2026-05-06 16:37 | -26.74989 | -47.27569 | 34100 ft | 400 kts | 232° |
| 2026-05-06 16:37 | -26.78311 | -47.32570 | 34097 ft | 396 kts | 231° |
| 2026-05-06 16:38 | -26.81602 | -47.37527 | 34097 ft | 398 kts | 232° |
| 2026-05-06 16:38 | -26.84894 | -47.42495 | 34100 ft | 396 kts | 231° |
| 2026-05-06 16:39 | -26.88195 | -47.47481 | 34098 ft | 395 kts | 232° |
| 2026-05-06 16:39 | -26.91487 | -47.52459 | 34098 ft | 397 kts | 231° |
| 2026-05-06 16:40 | -26.94768 | -47.57424 | 34098 ft | 396 kts | 232° |
| 2026-05-06 16:40 | -26.98052 | -47.62401 | 34096 ft | 396 kts | 231° |
| 2026-05-06 16:41 | -27.01356 | -47.67411 | 34096 ft | 397 kts | 232° |
| 2026-05-06 16:41 | -27.04633 | -47.72390 | 34096 ft | 394 kts | 232° |
| 2026-05-06 16:42 | -27.07901 | -47.77359 | 34091 ft | 394 kts | 232° |
| 2026-05-06 16:42 | -27.11140 | -47.82289 | 34090 ft | 393 kts | 232° |
| 2026-05-06 16:43 | -27.14395 | -47.87251 | 34086 ft | 391 kts | 232° |
| 2026-05-06 16:43 | -27.17621 | -47.92172 | 34088 ft | 392 kts | 232° |
| 2026-05-06 16:44 | -27.20853 | -47.97107 | 34089 ft | 391 kts | 232° |
| 2026-05-06 16:44 | -27.24060 | -48.02010 | 34089 ft | 390 kts | 232° |
| 2026-05-06 16:45 | -27.27283 | -48.06945 | 34083 ft | 391 kts | 232° |
| 2026-05-06 16:45 | -27.30500 | -48.11874 | 34082 ft | 390 kts | 232° |
| 2026-05-06 16:46 | -27.33712 | -48.16803 | 34077 ft | 391 kts | 232° |
| 2026-05-06 16:46 | -27.36942 | -48.21763 | 34078 ft | 389 kts | 232° |
| 2026-05-06 16:47 | -27.40133 | -48.26670 | 34078 ft | 390 kts | 232° |
| 2026-05-06 16:47 | -27.43327 | -48.31587 | 34079 ft | 388 kts | 232° |
| 2026-05-06 16:48 | -27.46524 | -48.36512 | 34082 ft | 389 kts | 232° |
| 2026-05-06 16:48 | -27.49719 | -48.41440 | 34096 ft | 387 kts | 233° |
| 2026-05-06 16:49 | -27.52885 | -48.46328 | 34090 ft | 388 kts | 232° |
| 2026-05-06 16:49 | -27.56064 | -48.51244 | 34093 ft | 387 kts | 232° |
| 2026-05-06 16:50 | -27.59250 | -48.56175 | 34093 ft | 386 kts | 232° |
| 2026-05-06 16:50 | -27.62406 | -48.61065 | 34094 ft | 386 kts | 232° |
| 2026-05-06 16:51 | -27.65567 | -48.65968 | 34098 ft | 384 kts | 233° |
| 2026-05-06 16:51 | -27.68722 | -48.70871 | 34113 ft | 385 kts | 233° |
| 2026-05-06 16:52 | -27.71858 | -48.75748 | 34121 ft | 385 kts | 233° |
| 2026-05-06 16:52 | -27.75011 | -48.80654 | 34142 ft | 384 kts | 233° |
| 2026-05-06 16:53 | -27.78155 | -48.85553 | 34142 ft | 383 kts | 233° |
| 2026-05-06 16:53 | -27.81296 | -48.90453 | 34150 ft | 384 kts | 233° |
| 2026-05-06 16:54 | -27.84411 | -48.95320 | 34151 ft | 382 kts | 233° |
| 2026-05-06 16:54 | -27.87531 | -49.00201 | 34157 ft | 381 kts | 233° |
| 2026-05-06 16:55 | -27.90658 | -49.05100 | 34155 ft | 381 kts | 233° |
| 2026-05-06 16:55 | -27.93772 | -49.09980 | 34165 ft | 382 kts | 233° |
| 2026-05-06 16:56 | -27.96864 | -49.14825 | 34159 ft | 381 kts | 233° |
| 2026-05-06 16:56 | -27.99980 | -49.19716 | 34153 ft | 383 kts | 233° |
| 2026-05-06 16:57 | -28.03079 | -49.24587 | 34153 ft | 379 kts | 234° |
| 2026-05-06 16:57 | -28.06190 | -49.29486 | 34172 ft | 381 kts | 233° |
| 2026-05-06 16:58 | -28.09279 | -49.34355 | 34192 ft | 379 kts | 233° |
| 2026-05-06 16:58 | -28.12364 | -49.39224 | 34193 ft | 380 kts | 233° |
| 2026-05-06 16:59 | -28.15422 | -49.44053 | 34207 ft | 378 kts | 233° |
| 2026-05-06 16:59 | -28.18508 | -49.48927 | 34205 ft | 379 kts | 233° |
| 2026-05-06 17:00 | -28.21559 | -49.53753 | 34220 ft | 378 kts | 233° |
| 2026-05-06 17:00 | -28.24653 | -49.58659 | 34233 ft | 379 kts | 234° |
| 2026-05-06 17:01 | -28.27732 | -49.63547 | 34232 ft | 377 kts | 234° |
| 2026-05-06 17:01 | -28.30789 | -49.68407 | 34247 ft | 378 kts | 234° |
| 2026-05-06 17:02 | -28.33837 | -49.73254 | 34253 ft | 377 kts | 234° |
| 2026-05-06 17:02 | -28.36889 | -49.78117 | 34275 ft | 375 kts | 234° |
| 2026-05-06 17:03 | -28.39950 | -49.82993 | 34260 ft | 377 kts | 234° |
| 2026-05-06 17:03 | -28.42988 | -49.87842 | 34257 ft | 376 kts | 234° |
| 2026-05-06 17:04 | -28.46030 | -49.92700 | 34251 ft | 376 kts | 234° |
| 2026-05-06 17:04 | -28.49042 | -49.97517 | 34260 ft | 375 kts | 234° |
| 2026-05-06 17:05 | -28.52071 | -50.02367 | 34248 ft | 376 kts | 234° |
| 2026-05-06 17:05 | -28.55088 | -50.07203 | 34253 ft | 374 kts | 234° |
| 2026-05-06 17:06 | -28.58104 | -50.12040 | 34092 ft | 369 kts | 235° |
| 2026-05-06 17:06 | -28.59570 | -50.14393 | 33704 ft | 362 kts | 234° |
| 2026-05-06 17:06 | -28.61020 | -50.16725 | 33199 ft | 357 kts | 234° |
| 2026-05-06 17:06 | -28.62440 | -50.19011 | 32678 ft | 356 kts | 234° |
| 2026-05-06 17:07 | -28.63870 | -50.21311 | 32076 ft | 357 kts | 235° |
| 2026-05-06 17:07 | -28.65319 | -50.23644 | 31446 ft | 359 kts | 235° |
| 2026-05-06 17:07 | -28.66765 | -50.25973 | 30996 ft | 371 kts | 235° |
| 2026-05-06 17:07 | -28.68283 | -50.28421 | 30490 ft | 388 kts | 236° |
| 2026-05-06 17:08 | -28.69859 | -50.30959 | 29950 ft | 390 kts | 235° |
| 2026-05-06 17:08 | -28.71462 | -50.33411 | 29401 ft | 387 kts | 233° |
| 2026-05-06 17:08 | -28.73224 | -50.35688 | 28858 ft | 384 kts | 227° |
| 2026-05-06 17:08 | -28.75223 | -50.37729 | 28319 ft | 382 kts | 222° |
| 2026-05-06 17:09 | -28.77298 | -50.39576 | 27790 ft | 378 kts | 219° |
| 2026-05-06 17:09 | -28.79406 | -50.41350 | 27268 ft | 375 kts | 219° |
| 2026-05-06 17:09 | -28.81493 | -50.43084 | 26742 ft | 371 kts | 219° |
| 2026-05-06 17:09 | -28.83581 | -50.44824 | 26221 ft | 367 kts | 219° |
| 2026-05-06 17:10 | -28.85625 | -50.46539 | 25708 ft | 364 kts | 220° |
| 2026-05-06 17:10 | -28.87645 | -50.48244 | 25201 ft | 361 kts | 220° |
| 2026-05-06 17:10 | -28.89645 | -50.49939 | 24696 ft | 357 kts | 220° |
| 2026-05-06 17:10 | -28.91634 | -50.51632 | 24193 ft | 354 kts | 220° |
| 2026-05-06 17:11 | -28.93621 | -50.53328 | 23669 ft | 351 kts | 220° |
| 2026-05-06 17:11 | -28.95557 | -50.54987 | 23171 ft | 349 kts | 220° |
| 2026-05-06 17:11 | -28.97484 | -50.56637 | 22678 ft | 346 kts | 220° |
| 2026-05-06 17:11 | -28.99426 | -50.58303 | 22191 ft | 358 kts | 220° |
| 2026-05-06 17:12 | -29.01435 | -50.60031 | 21664 ft | 365 kts | 220° |
| 2026-05-06 17:12 | -29.03483 | -50.61787 | 21129 ft | 362 kts | 220° |
| 2026-05-06 17:12 | -29.05469 | -50.63488 | 20609 ft | 359 kts | 220° |
| 2026-05-06 17:12 | -29.07458 | -50.65192 | 20087 ft | 355 kts | 220° |
| 2026-05-06 17:13 | -29.09453 | -50.66882 | 19574 ft | 353 kts | 219° |
| 2026-05-06 17:13 | -29.11507 | -50.68379 | 19043 ft | 353 kts | 212° |
| 2026-05-06 17:13 | -29.13791 | -50.69396 | 18514 ft | 357 kts | 198° |
| 2026-05-06 17:13 | -29.16268 | -50.69833 | 17984 ft | 358 kts | 189° |
| 2026-05-06 17:14 | -29.18770 | -50.70006 | 17451 ft | 357 kts | 186° |
| 2026-05-06 17:14 | -29.21227 | -50.70109 | 16935 ft | 356 kts | 186° |
| 2026-05-06 17:14 | -29.23702 | -50.70208 | 16395 ft | 354 kts | 186° |
| 2026-05-06 17:14 | -29.26147 | -50.70315 | 15862 ft | 353 kts | 186° |
| 2026-05-06 17:15 | -29.28610 | -50.70434 | 15352 ft | 351 kts | 186° |
| 2026-05-06 17:15 | -29.31051 | -50.70555 | 15178 ft | 349 kts | 186° |
| 2026-05-06 17:15 | -29.33499 | -50.70667 | 15111 ft | 352 kts | 186° |
| 2026-05-06 17:15 | -29.35930 | -50.70774 | 14738 ft | 349 kts | 186° |
| 2026-05-06 17:16 | -29.38345 | -50.70877 | 14160 ft | 350 kts | 186° |
| 2026-05-06 17:16 | -29.40782 | -50.70982 | 13608 ft | 349 kts | 185° |
| 2026-05-06 17:16 | -29.43190 | -50.71085 | 13080 ft | 348 kts | 185° |
| 2026-05-06 17:16 | -29.45623 | -50.71190 | 12548 ft | 347 kts | 185° |
| 2026-05-06 17:17 | -29.48019 | -50.71294 | 12010 ft | 346 kts | 185° |
| 2026-05-06 17:17 | -29.50431 | -50.71400 | 11482 ft | 345 kts | 185° |
| 2026-05-06 17:17 | -29.52835 | -50.71504 | 10955 ft | 344 kts | 185° |
| 2026-05-06 17:17 | -29.55216 | -50.71606 | 10544 ft | 339 kts | 185° |
| 2026-05-06 17:18 | -29.57524 | -50.71703 | 10369 ft | 326 kts | 185° |
| 2026-05-06 17:18 | -29.59758 | -50.71797 | 10252 ft | 312 kts | 185° |
| 2026-05-06 17:18 | -29.61877 | -50.71888 | 10040 ft | 304 kts | 185° |
| 2026-05-06 17:18 | -29.64000 | -50.71982 | 9618 ft | 304 kts | 185° |
| 2026-05-06 17:19 | -29.66140 | -50.72076 | 9206 ft | 303 kts | 185° |
| 2026-05-06 17:19 | -29.68229 | -50.72167 | 8832 ft | 301 kts | 185° |
| 2026-05-06 17:19 | -29.70339 | -50.72265 | 8454 ft | 299 kts | 187° |
| 2026-05-06 17:19 | -29.72372 | -50.72592 | 8099 ft | 293 kts | 199° |
| 2026-05-06 17:20 | -29.74120 | -50.73624 | 7944 ft | 274 kts | 224° |
| 2026-05-06 17:20 | -29.75458 | -50.75135 | 7616 ft | 269 kts | 232° |
| 2026-05-06 17:20 | -29.76728 | -50.76759 | 7201 ft | 270 kts | 232° |
| 2026-05-06 17:20 | -29.78014 | -50.78338 | 6871 ft | 269 kts | 230° |
| 2026-05-06 17:21 | -29.79317 | -50.79853 | 6569 ft | 267 kts | 229° |
| 2026-05-06 17:21 | -29.80644 | -50.81358 | 6218 ft | 266 kts | 228° |
| 2026-05-06 17:21 | -29.81959 | -50.82849 | 5865 ft | 265 kts | 229° |
| 2026-05-06 17:21 | -29.83272 | -50.84343 | 5507 ft | 265 kts | 228° |
| 2026-05-06 17:22 | -29.84590 | -50.85845 | 5137 ft | 265 kts | 228° |
| 2026-05-06 17:22 | -29.85893 | -50.87329 | 4827 ft | 262 kts | 228° |
| 2026-05-06 17:22 | -29.87164 | -50.88771 | 4716 ft | 250 kts | 228° |
| 2026-05-06 17:22 | -29.88370 | -50.90145 | 4639 ft | 236 kts | 228° |
| 2026-05-06 17:23 | -29.89506 | -50.91439 | 4487 ft | 226 kts | 229° |
| 2026-05-06 17:23 | -29.90669 | -50.92646 | 4297 ft | 222 kts | 219° |
| 2026-05-06 17:23 | -29.92046 | -50.93457 | 3956 ft | 226 kts | 203° |
| 2026-05-06 17:23 | -29.93544 | -50.94033 | 3604 ft | 226 kts | 201° |
| 2026-05-06 17:24 | -29.95024 | -50.94622 | 3322 ft | 222 kts | 203° |
| 2026-05-06 17:24 | -29.96459 | -50.95250 | 3090 ft | 217 kts | 204° |
| 2026-05-06 17:24 | -29.97839 | -50.95876 | 2894 ft | 209 kts | 206° |
| 2026-05-06 17:24 | -29.99070 | -50.96708 | 2698 ft | 198 kts | 226° |
| 2026-05-06 17:25 | -29.99719 | -50.97996 | 2531 ft | 181 kts | 262° |
| 2026-05-06 17:25 | -29.99766 | -50.99397 | 2377 ft | 169 kts | 276° |
| 2026-05-06 17:25 | -29.99730 | -51.00733 | 2241 ft | 164 kts | 274° |
| 2026-05-06 17:25 | -29.99727 | -51.02007 | 2211 ft | 162 kts | 274° |
| 2026-05-06 17:26 | -29.99700 | -51.03345 | 2223 ft | 166 kts | 275° |
| 2026-05-06 17:26 | -29.99666 | -51.04669 | 2216 ft | 167 kts | 275° |
| 2026-05-06 17:26 | -29.99637 | -51.06042 | 1907 ft | 169 kts | 275° |
| 2026-05-06 17:26 | -29.99614 | -51.07357 | 1603 ft | 162 kts | 274° |
| 2026-05-06 17:27 | -29.99585 | -51.08650 | 1368 ft | 158 kts | 275° |
| 2026-05-06 17:27 | -29.99545 | -51.09880 | 1168 ft | 152 kts | 274° |
| 2026-05-06 17:27 | -29.99540 | -51.11062 | 951 ft | 144 kts | 274° |
| 2026-05-06 17:27 | -29.99534 | -51.12223 | 742 ft | 143 kts | 272° |
| 2026-05-06 17:28 | -29.99513 | -51.13331 | 514 ft | 135 kts | 274° |
| 2026-05-06 17:28 | -29.99483 | -51.14408 | 336 ft | 131 kts | 272° |
| 2026-05-06 17:28 | -29.99479 | -51.15430 | 151 ft | 125 kts | 272° |
| 2026-05-06 17:28 | -29.99474 | -51.16395 | 22 ft | 106 kts | 271° |
| 2026-05-06 17:29 | -29.99464 | -51.16998 | 22 ft | 46 kts | 270° |
| 2026-05-06 17:29 | -29.99457 | -51.17363 | 19 ft | 44 kts | 271° |
| 2026-05-06 17:29 | -29.99451 | -51.17659 | 19 ft | 22 kts | 282° |
| 2026-05-06 17:29 | -29.99348 | -51.17704 | 19 ft | 7 kts | 358° |
| 2026-05-06 17:30 | -29.99303 | -51.17705 | 20 ft | 5 kts | 0° |
| 2026-05-06 17:30 | -29.99264 | -51.17702 | 21 ft | 8 kts | 5° |
| 2026-05-06 17:30 | -29.99197 | -51.17703 | 22 ft | 9 kts | 343° |
| 2026-05-06 17:30 | -29.99164 | -51.17749 | 22 ft | 6 kts | 319° |
| 2026-05-06 17:31 | -29.99125 | -51.17759 | 22 ft | 4 kts | 355° |
| 2026-05-06 17:31 | -29.99098 | -51.17761 | 22 ft | 3 kts | 357° |
| 2026-05-06 17:31 | -29.99078 | -51.17762 | 22 ft | 1 kts | 358° |
| 2026-05-06 17:31 | -29.99075 | -51.17762 | 22 ft | 0 kts | 358° |